createdAt,value
2022-09-14T00:01:35.148Z,97654.50
2022-09-14T00:04:11.273Z,97647.53
2022-09-14T00:06:39.535Z,97652.91
2022-09-14T00:09:08.045Z,97651.00
2022-09-14T00:11:36.337Z,97651.00
2022-09-14T00:14:05.653Z,97654.50
2022-09-14T00:16:39.971Z,97646.44
2022-09-14T00:19:17.008Z,97642.16
2022-09-14T00:21:44.666Z,97642.16
2022-09-14T00:24:12.308Z,97638.38
2022-09-14T00:26:39.653Z,97634.06
2022-09-14T00:29:07.396Z,97632.19
2022-09-14T00:31:37.224Z,97633.00
2022-09-14T00:34:06.298Z,97631.38
2022-09-14T00:36:39.217Z,97626.00
2022-09-14T00:39:07.274Z,97628.69
2022-09-14T00:41:39.347Z,97626.00
2022-09-14T00:44:12.828Z,97623.31
2022-09-14T00:46:43.058Z,97626.00
2022-09-14T00:49:15.787Z,97631.38
2022-09-14T00:52:18.908Z,97620.63
2022-09-14T00:54:59.818Z,97623.31
2022-09-14T00:57:31.445Z,97620.63
2022-09-14T00:59:59.478Z,97620.63
2022-09-14T01:02:28.565Z,97615.25
2022-09-14T01:04:56.651Z,97616.31
2022-09-14T01:07:52.274Z,97610.66
2022-09-14T01:10:28.421Z,97609.06
2022-09-14T01:13:05.299Z,97605.28
2022-09-14T01:15:52.257Z,97607.97
2022-09-14T01:18:27.631Z,97608.22
2022-09-14T01:21:03.874Z,97606.38
2022-09-14T01:24:03.139Z,97604.50
2022-09-14T01:26:53.972Z,97602.84
2022-09-14T01:29:35.799Z,97604.50
2022-09-14T01:32:13.001Z,97598.03
2022-09-14T01:34:49.822Z,97604.50
2022-09-14T01:37:42.804Z,97602.84
2022-09-14T01:40:23.368Z,97599.13
2022-09-14T01:42:56.500Z,97599.13
2022-09-14T01:45:28.096Z,97593.72
2022-09-14T01:48:02.306Z,97587.56
2022-09-14T01:50:38.117Z,97592.09
2022-09-14T01:53:25.980Z,97596.44
2022-09-14T01:56:04.673Z,97588.34
2022-09-14T01:58:36.506Z,97591.03
2022-09-14T02:01:09.170Z,97593.72
2022-09-14T02:03:48.887Z,97591.03
2022-09-14T02:06:31.832Z,97576.81
2022-09-14T02:09:00.277Z,97582.97
2022-09-14T02:11:27.637Z,97585.66
2022-09-14T02:13:55.352Z,97582.97
2022-09-14T02:16:24.643Z,97581.09
2022-09-14T02:18:52.778Z,97587.56
2022-09-14T02:21:26.530Z,97585.66
2022-09-14T02:23:54.304Z,97573.81
2022-09-14T02:26:22.818Z,97569.53
2022-09-14T02:28:55.751Z,97560.66
2022-09-14T02:31:59.369Z,97565.22
2022-09-14T02:34:27.273Z,97558.78
2022-09-14T02:37:10.984Z,97565.22
2022-09-14T02:39:43.186Z,97565.22
2022-09-14T02:42:19.927Z,97565.22
2022-09-14T02:44:58.905Z,97556.09
2022-09-14T02:47:46.651Z,97550.72
2022-09-14T02:50:21.216Z,97537.25
2022-09-14T02:52:48.664Z,97533.78
2022-09-14T02:55:21.088Z,97537.25
2022-09-14T02:58:09.554Z,97527.56
2022-09-14T03:00:43.826Z,97532.94
2022-09-14T03:03:13.691Z,97534.56
2022-09-14T03:05:42.397Z,97535.63
2022-09-14T03:08:10.815Z,97538.31
2022-09-14T03:10:41.417Z,97538.31
2022-09-14T03:13:09.570Z,97534.03
2022-09-14T03:15:37.167Z,97530.53
2022-09-14T03:18:06.503Z,97534.03
2022-09-14T03:20:34.545Z,97531.34
2022-09-14T03:23:02.762Z,97539.41
2022-09-14T03:25:30.869Z,97532.13
2022-09-14T03:27:59.953Z,97532.13
2022-09-14T03:30:27.908Z,97533.22
2022-09-14T03:32:57.625Z,97541.00
2022-09-14T03:35:25.672Z,97535.91
2022-09-14T03:37:53.382Z,97542.09
2022-09-14T03:40:22.072Z,97549.06
2022-09-14T03:42:51.172Z,97545.84
2022-09-14T03:45:19.869Z,97552.84
2022-09-14T03:47:47.915Z,97550.16
2022-09-14T03:50:16.905Z,97547.47
2022-09-14T03:52:44.442Z,97540.44
2022-09-14T03:55:11.949Z,97540.44
2022-09-14T03:57:40.054Z,97543.16
2022-09-14T04:00:08.508Z,97543.97
2022-09-14T04:02:36.417Z,97539.66
2022-09-14T04:05:04.785Z,97542.09
2022-09-14T04:07:32.327Z,97535.91
2022-09-14T04:09:59.692Z,97525.97
2022-09-14T04:12:29.673Z,97536.16
2022-09-14T04:14:57.133Z,97538.84
2022-09-14T04:17:25.180Z,97546.91
2022-09-14T04:19:52.719Z,97542.59
2022-09-14T04:22:20.094Z,97537.22
2022-09-14T04:24:47.734Z,97535.63
2022-09-14T04:27:15.308Z,97531.03
2022-09-14T04:29:45.392Z,97534.81
2022-09-14T04:32:12.805Z,97529.44
2022-09-14T04:34:40.546Z,97528.88
2022-09-14T04:37:08.081Z,97532.38
2022-09-14T04:39:36.067Z,97530.78
2022-09-14T04:42:03.686Z,97525.38
2022-09-14T04:44:31.029Z,97529.13
2022-09-14T04:46:58.669Z,97532.63
2022-09-14T04:49:26.265Z,97525.66
2022-09-14T04:51:53.941Z,97532.91
2022-09-14T04:54:22.108Z,97538.28
2022-09-14T04:56:49.583Z,97535.84
2022-09-14T04:59:17.378Z,97529.38
2022-09-14T05:01:47.567Z,97524.84
2022-09-14T05:04:16.179Z,97525.91
2022-09-14T05:06:44.325Z,97535.59
2022-09-14T05:09:16.198Z,97536.66
2022-09-14T05:11:46.067Z,97537.44
2022-09-14T05:14:14.374Z,97540.44
2022-09-14T05:16:43.511Z,97533.97
2022-09-14T05:19:14.636Z,97536.66
2022-09-14T05:21:42.042Z,97544.72
2022-09-14T05:24:18.394Z,97543.66
2022-09-14T05:26:46.831Z,97539.34
2022-09-14T05:29:15.948Z,97538.28
2022-09-14T05:31:44.210Z,97539.09
2022-09-14T05:34:13.175Z,97539.88
2022-09-14T05:36:40.708Z,97534.50
2022-09-14T05:39:08.829Z,97535.31
2022-09-14T05:41:37.422Z,97535.06
2022-09-14T05:44:05.454Z,97531.56
2022-09-14T05:46:33.750Z,97532.63
2022-09-14T05:49:01.369Z,97535.06
2022-09-14T05:51:29.406Z,97542.06
2022-09-14T05:53:58.769Z,97542.06
2022-09-14T05:56:28.593Z,97540.44
2022-09-14T05:58:56.147Z,97534.00
2022-09-14T06:01:26.343Z,97541.78
2022-09-14T06:03:56.257Z,97538.84
2022-09-14T06:06:24.364Z,97542.59
2022-09-14T06:08:54.125Z,97534.28
2022-09-14T06:11:28.487Z,97542.09
2022-09-14T06:13:56.897Z,97536.16
2022-09-14T06:16:25.832Z,97539.66
2022-09-14T06:18:56.174Z,97541.28
2022-09-14T06:21:28.492Z,97542.09
2022-09-14T06:23:56.618Z,97547.47
2022-09-14T06:26:24.347Z,97548.53
2022-09-14T06:28:51.779Z,97544.22
2022-09-14T06:31:22.445Z,97554.97
2022-09-14T06:33:53.427Z,97556.34
2022-09-14T06:36:26.729Z,97554.72
2022-09-14T06:38:55.684Z,97564.41
2022-09-14T06:41:28.998Z,97565.22
2022-09-14T06:43:58.845Z,97562.81
2022-09-14T06:46:30.407Z,97560.13
2022-09-14T06:49:03.441Z,97558.22
2022-09-14T06:51:36.384Z,97564.41
2022-09-14T06:54:05.821Z,97558.22
2022-09-14T06:56:38.834Z,97559.81
2022-09-14T06:59:07.822Z,97562.53
2022-09-14T07:01:36.262Z,97554.44
2022-09-14T07:04:05.284Z,97564.41
2022-09-14T07:06:39.104Z,97565.22
2022-09-14T07:09:06.889Z,97561.47
2022-09-14T07:11:34.542Z,97561.47
2022-09-14T07:14:02.089Z,97568.44
2022-09-14T07:16:31.592Z,97560.38
2022-09-14T07:19:01.911Z,97559.56
2022-09-14T07:21:31.049Z,97559.56
2022-09-14T07:23:58.593Z,97559.56
2022-09-14T07:26:28.574Z,97566.84
2022-09-14T07:29:02.225Z,97557.69
2022-09-14T07:31:33.260Z,97552.31
2022-09-14T07:34:03.244Z,97556.63
2022-09-14T07:36:34.823Z,97555.56
2022-09-14T07:39:05.911Z,97559.31
2022-09-14T07:41:34.656Z,97562.56
2022-09-14T07:44:05.122Z,97557.19
2022-09-14T07:46:38.320Z,97557.19
2022-09-14T07:49:07.250Z,97559.59
2022-09-14T07:51:36.702Z,97550.72
2022-09-14T07:54:06.750Z,97549.66
2022-09-14T07:56:35.040Z,97544.28
2022-09-14T07:59:31.326Z,97539.72
2022-09-14T08:01:52.432Z,97548.59
2022-09-14T08:04:19.975Z,97546.69
2022-09-14T08:06:47.281Z,97544.00
2022-09-14T08:09:15.029Z,97543.75
2022-09-14T08:11:42.406Z,97549.13
2022-09-14T08:14:11.711Z,97545.38
2022-09-14T08:16:40.682Z,97550.75
2022-09-14T08:19:13.081Z,97549.94
2022-09-14T08:21:46.283Z,97549.69
2022-09-14T08:24:17.233Z,97548.59
2022-09-14T08:26:45.985Z,97560.19
2022-09-14T08:29:15.160Z,97550.22
2022-09-14T08:31:45.398Z,97550.22
2022-09-14T08:34:15.486Z,97557.22
2022-09-14T08:36:44.089Z,97558.84
2022-09-14T08:39:13.854Z,97556.72
2022-09-14T08:42:00.169Z,97560.44
2022-09-14T08:44:27.424Z,97556.72
2022-09-14T08:47:19.228Z,97547.53
2022-09-14T08:49:59.453Z,97562.63
2022-09-14T08:52:34.968Z,97548.91
2022-09-14T08:55:35.372Z,97550.78
2022-09-14T08:58:20.508Z,97556.97
2022-09-14T09:01:16.961Z,97552.41
2022-09-14T09:04:43.447Z,97544.34
2022-09-14T09:07:23.254Z,97547.84
2022-09-14T09:09:53.365Z,97536.81
2022-09-14T09:12:24.284Z,97539.53
2022-09-14T09:14:59.277Z,97542.22
2022-09-14T09:17:43.575Z,97537.38
2022-09-14T09:20:20.934Z,97531.47
2022-09-14T09:23:01.258Z,97528.75
2022-09-14T09:25:39.853Z,97529.31
2022-09-14T09:28:11.952Z,97534.69
2022-09-14T09:30:41.349Z,97534.69
2022-09-14T09:33:17.978Z,97533.59
2022-09-14T09:35:45.941Z,97539.00
2022-09-14T09:38:16.977Z,97537.13
2022-09-14T09:40:49.235Z,97520.16
2022-09-14T09:43:38.494Z,97527.16
2022-09-14T09:46:12.344Z,97534.97
2022-09-14T09:48:43.075Z,97528.78
2022-09-14T09:51:26.783Z,97533.91
2022-09-14T09:54:12.474Z,97525.56
2022-09-14T09:56:51.701Z,97520.72
2022-09-14T09:59:38.947Z,97520.72
2022-09-14T10:02:29.092Z,97519.66
2022-09-14T10:05:08.679Z,97518.59
2022-09-14T10:07:56.055Z,97520.19
2022-09-14T10:10:46.024Z,97518.31
2022-09-14T10:13:36.470Z,97517.50
2022-09-14T10:16:07.224Z,97521.81
2022-09-14T10:18:35.545Z,97530.97
2022-09-14T10:21:02.896Z,97516.94
2022-09-14T10:23:38.710Z,97511.56
2022-09-14T10:26:26.998Z,97514.53
2022-09-14T10:29:27.861Z,97511.03
2022-09-14T10:32:06.328Z,97517.50
2022-09-14T10:34:33.939Z,97517.50
2022-09-14T10:37:32.762Z,97517.50
2022-09-14T10:40:18.487Z,97510.47
2022-09-14T10:43:13.308Z,97507.78
2022-09-14T10:45:46.901Z,97507.00
2022-09-14T10:48:41.010Z,97505.09
2022-09-14T10:51:23.774Z,97499.72
2022-09-14T10:54:28.673Z,97503.50
2022-09-14T10:57:05.195Z,97500.81
2022-09-14T10:59:44.355Z,97508.88
2022-09-14T11:02:38.551Z,97506.19
2022-09-14T11:05:25.600Z,97511.56
2022-09-14T11:08:03.241Z,97501.88
2022-09-14T11:10:41.426Z,97502.41
2022-09-14T11:13:33.697Z,97498.66
2022-09-14T11:16:47.786Z,97503.50
2022-09-14T11:19:24.111Z,97497.06
2022-09-14T11:22:12.885Z,97497.84
2022-09-14T11:24:46.046Z,97493.28
2022-09-14T11:27:27.963Z,97489.53
2022-09-14T11:30:02.608Z,97487.91
2022-09-14T11:32:51.729Z,97483.06
2022-09-14T11:35:24.228Z,97485.75
2022-09-14T11:37:58.626Z,97496.50
2022-09-14T11:40:31.383Z,97501.91
2022-09-14T11:43:08.784Z,97498.16
2022-09-14T11:45:50.307Z,97503.53
2022-09-14T11:48:42.417Z,97499.75
2022-09-14T11:51:20.411Z,97501.34
2022-09-14T11:53:48.200Z,97499.75
2022-09-14T11:56:27.103Z,97504.59
2022-09-14T11:58:58.158Z,97508.38
2022-09-14T12:01:37.259Z,97504.66
2022-09-14T12:04:16.990Z,97504.38
2022-09-14T12:06:51.297Z,97509.75
2022-09-14T12:09:21.313Z,97511.63
2022-09-14T12:11:58.502Z,97515.41
2022-09-14T12:14:31.617Z,97511.91
2022-09-14T12:17:22.764Z,97516.44
2022-09-14T12:19:59.253Z,97514.84
2022-09-14T12:22:36.237Z,97517.00
2022-09-14T12:25:05.497Z,97522.38
2022-09-14T12:27:36.653Z,97520.75
2022-09-14T12:30:40.925Z,97512.13
2022-09-14T12:33:49.489Z,97510.50
2022-09-14T12:36:19.781Z,97509.97
2022-09-14T12:38:52.356Z,97506.22
2022-09-14T12:46:09.853Z,97497.59
2022-09-14T12:48:47.310Z,97485.22
2022-09-14T12:51:27.112Z,97493.03
2022-09-14T12:54:36.467Z,97496.50
2022-09-14T12:57:07.460Z,97486.84
2022-09-14T12:59:40.365Z,97486.84
2022-09-14T13:02:49.434Z,97488.72
2022-09-14T13:05:20.601Z,97479.81
2022-09-14T13:07:48.322Z,97477.97
2022-09-14T13:10:37.911Z,97486.84
2022-09-14T13:13:18.020Z,97485.22
2022-09-14T13:15:55.522Z,97477.13
2022-09-14T13:18:28.260Z,97483.59
2022-09-14T13:20:58.630Z,97479.81
2022-09-14T13:23:41.956Z,97469.06
2022-09-14T13:26:31.640Z,97470.69
2022-09-14T13:29:01.429Z,97465.31
2022-09-14T13:31:35.634Z,97471.50
2022-09-14T13:34:05.268Z,97462.63
2022-09-14T13:36:40.844Z,97456.16
2022-09-14T13:39:19.404Z,97445.38
2022-09-14T13:41:47.430Z,97440.84
2022-09-14T13:44:15.497Z,97437.84
2022-09-14T13:46:43.397Z,97433.56
2022-09-14T13:49:13.140Z,97428.72
2022-09-14T13:51:40.600Z,97424.41
2022-09-14T13:54:29.665Z,97423.34
2022-09-14T13:57:18.713Z,97423.34
2022-09-14T14:00:14.155Z,97426.59
2022-09-14T14:02:52.989Z,97422.25
2022-09-14T14:05:30.046Z,97422.00
2022-09-14T14:08:00.748Z,97413.69
2022-09-14T14:10:32.423Z,97401.81
2022-09-14T14:13:01.749Z,97393.75
2022-09-14T14:15:40.224Z,97404.50
2022-09-14T14:18:30.942Z,97396.97
2022-09-14T14:21:06.607Z,97390.81
2022-09-14T14:23:34.291Z,97388.91
2022-09-14T14:26:14.615Z,97391.59
2022-09-14T14:28:42.576Z,97391.59
2022-09-14T14:31:15.925Z,97396.97
2022-09-14T14:33:46.857Z,97405.06
2022-09-14T14:36:14.607Z,97396.19
2022-09-14T14:38:44.202Z,97405.06
2022-09-14T14:41:21.043Z,97396.19
2022-09-14T14:43:52.236Z,97398.06
2022-09-14T14:46:20.121Z,97398.06
2022-09-14T14:48:47.447Z,97399.94
2022-09-14T14:51:15.628Z,97393.75
2022-09-14T14:53:43.768Z,97402.63
2022-09-14T14:56:13.669Z,97407.22
2022-09-14T14:58:45.826Z,97400.22
2022-09-14T15:01:13.756Z,97400.22
2022-09-14T15:03:41.214Z,97395.91
2022-09-14T15:06:19.270Z,97392.16
2022-09-14T15:08:46.864Z,97392.94
2022-09-14T15:11:17.912Z,97396.69
2022-09-14T15:13:46.702Z,97397.53
2022-09-14T15:16:14.800Z,97392.16
2022-09-14T15:18:42.523Z,97394.00
2022-09-14T15:21:10.861Z,97392.16
2022-09-14T15:23:39.024Z,97392.16
2022-09-14T15:26:06.625Z,97388.38
2022-09-14T15:28:40.724Z,97386.75
2022-09-14T15:31:08.322Z,97388.38
2022-09-14T15:33:35.654Z,97393.75
2022-09-14T15:36:03.471Z,97393.75
2022-09-14T15:38:32.179Z,97386.75
2022-09-14T15:40:59.546Z,97393.75
2022-09-14T15:43:27.861Z,97381.38
2022-09-14T15:45:55.634Z,97392.16
2022-09-14T15:48:23.391Z,97393.22
2022-09-14T15:50:50.745Z,97381.38
2022-09-14T15:53:19.815Z,97373.56
2022-09-14T15:55:47.350Z,97374.38
2022-09-14T15:58:14.748Z,97382.44
2022-09-14T16:00:44.990Z,97379.75
2022-09-14T16:03:12.822Z,97374.38
2022-09-14T16:05:40.299Z,97377.06
2022-09-14T16:08:08.067Z,97380.28
2022-09-14T16:10:37.973Z,97370.63
2022-09-14T16:13:05.654Z,97374.38
2022-09-14T16:15:33.176Z,97371.09
2022-09-14T16:18:00.642Z,97369.50
2022-09-14T16:20:28.242Z,97366.00
2022-09-14T16:22:55.992Z,97357.13
2022-09-14T16:25:23.399Z,97359.81
2022-09-14T16:27:50.759Z,97360.91
2022-09-14T16:30:18.481Z,97353.88
2022-09-14T16:32:45.957Z,97353.88
2022-09-14T16:35:13.310Z,97346.09
2022-09-14T16:37:40.892Z,97340.97
2022-09-14T16:40:09.424Z,97350.13
2022-09-14T16:42:36.942Z,97346.34
2022-09-14T16:45:04.876Z,97355.22
2022-09-14T16:47:32.422Z,97352.81
2022-09-14T16:49:59.907Z,97347.44
2022-09-14T16:52:29.657Z,97357.13
2022-09-14T16:54:57.736Z,97359.00
2022-09-14T16:57:26.777Z,97353.63
2022-09-14T16:59:54.447Z,97348.25
2022-09-14T17:02:23.220Z,97343.66
2022-09-14T17:04:50.780Z,97351.19
2022-09-14T17:07:18.345Z,97353.88
2022-09-14T17:09:46.008Z,97347.44
2022-09-14T17:12:14.373Z,97345.81
2022-09-14T17:14:42.284Z,97345.81
2022-09-14T17:17:09.680Z,97341.22
2022-09-14T17:19:40.497Z,97338.84
2022-09-14T17:22:10.863Z,97340.44
2022-09-14T17:24:39.909Z,97336.69
2022-09-14T17:27:07.512Z,97335.34
2022-09-14T17:29:38.518Z,97340.72
2022-09-14T17:32:06.280Z,97344.47
2022-09-14T17:34:36.374Z,97350.66
2022-09-14T17:37:04.206Z,97351.47
2022-09-14T17:39:31.782Z,97356.88
2022-09-14T17:42:00.406Z,97353.34
2022-09-14T17:44:31.486Z,97346.91
2022-09-14T17:46:58.882Z,97339.09
2022-09-14T17:49:26.512Z,97324.56
2022-09-14T17:51:53.848Z,97329.13
2022-09-14T17:54:21.191Z,97320.25
2022-09-14T17:56:49.603Z,97317.56
2022-09-14T17:59:20.907Z,97327.53
2022-09-14T18:01:49.386Z,97323.75
2022-09-14T18:04:18.243Z,97329.13
2022-09-14T18:06:47.867Z,97325.38
2022-09-14T18:09:21.177Z,97323.75
2022-09-14T18:11:50.071Z,97331.81
2022-09-14T18:14:18.033Z,97328.31
2022-09-14T18:16:46.850Z,97335.34
2022-09-14T18:19:15.941Z,97340.72
2022-09-14T18:21:45.918Z,97339.88
2022-09-14T18:24:16.175Z,97334.50
2022-09-14T18:26:46.570Z,97340.72
2022-09-14T18:29:15.859Z,97329.13
2022-09-14T18:31:44.458Z,97330.75
2022-09-14T18:34:11.985Z,97318.34
2022-09-14T18:36:39.583Z,97316.75
2022-09-14T18:39:08.167Z,97310.28
2022-09-14T18:41:37.055Z,97312.19
2022-09-14T18:44:05.216Z,97306.00
2022-09-14T18:46:34.235Z,97303.31
2022-09-14T18:49:02.294Z,97299.81
2022-09-14T18:51:31.985Z,97300.63
2022-09-14T18:54:04.348Z,97290.41
2022-09-14T18:56:33.590Z,97288.25
2022-09-14T18:59:06.368Z,97292.00
2022-09-14T19:01:36.547Z,97290.41
2022-09-14T19:04:07.533Z,97288.50
2022-09-14T19:06:39.187Z,97282.31
2022-09-14T19:09:07.781Z,97286.88
2022-09-14T19:11:36.464Z,97283.38
2022-09-14T19:14:10.491Z,97294.16
2022-09-14T19:16:40.448Z,97292.56
2022-09-14T19:19:10.911Z,97294.16
2022-09-14T19:21:38.841Z,97279.09
2022-09-14T19:24:10.403Z,97280.16
2022-09-14T19:26:45.345Z,97274.78
2022-09-14T19:29:19.871Z,97267.78
2022-09-14T19:31:53.120Z,97269.41
2022-09-14T19:34:26.196Z,97267.50
2022-09-14T19:36:58.070Z,97276.66
2022-09-14T19:39:26.740Z,97268.59
2022-09-14T19:41:54.089Z,97265.66
2022-09-14T19:44:25.034Z,97265.66
2022-09-14T19:46:52.936Z,97253.25
2022-09-14T19:49:23.607Z,97265.66
2022-09-14T19:51:52.751Z,97261.88
2022-09-14T19:54:20.523Z,97261.06
2022-09-14T19:56:48.175Z,97272.63
2022-09-14T19:59:16.687Z,97273.44
2022-09-14T20:01:45.042Z,97275.31
2022-09-14T20:04:13.096Z,97269.94
2022-09-14T20:06:43.443Z,97278.00
2022-09-14T20:09:12.812Z,97270.72
2022-09-14T20:11:43.424Z,97263.50
2022-09-14T20:14:13.782Z,97269.94
2022-09-14T20:16:47.326Z,97274.25
2022-09-14T20:19:20.291Z,97268.88
2022-09-14T20:21:49.524Z,97275.06
2022-09-14T20:24:26.110Z,97268.88
2022-09-14T20:26:56.607Z,97273.44
2022-09-14T20:29:25.693Z,97279.63
2022-09-14T20:31:53.383Z,97275.06
2022-09-14T20:34:21.580Z,97275.84
2022-09-14T20:36:50.975Z,97275.84
2022-09-14T20:39:19.794Z,97268.88
2022-09-14T20:41:57.156Z,97267.25
2022-09-14T20:44:24.801Z,97265.34
2022-09-14T20:46:52.425Z,97263.50
2022-09-14T20:49:22.087Z,97262.66
2022-09-14T20:51:52.538Z,97259.97
2022-09-14T20:54:20.876Z,97268.88
2022-09-14T20:56:48.218Z,97259.97
2022-09-14T20:59:17.386Z,97256.47
2022-09-14T21:01:47.326Z,97258.09
2022-09-14T21:04:22.021Z,97257.28
2022-09-14T21:06:52.621Z,97246.50
2022-09-14T21:09:23.203Z,97247.34
2022-09-14T21:11:51.191Z,97239.28
2022-09-14T21:14:19.823Z,97231.19
2022-09-14T21:16:49.117Z,97223.94
2022-09-14T21:19:20.222Z,97208.03
2022-09-14T21:21:49.121Z,97209.69
2022-09-14T21:24:18.434Z,97214.22
2022-09-14T21:26:46.701Z,97215.06
2022-09-14T21:29:20.841Z,97208.03
2022-09-14T21:31:48.799Z,97203.47
2022-09-14T21:34:16.484Z,97204.28
2022-09-14T21:36:49.032Z,97194.59
2022-09-14T21:39:21.451Z,97188.16
2022-09-14T21:41:53.439Z,97188.16
2022-09-14T21:44:34.000Z,97190.84
2022-09-14T21:47:02.106Z,97181.13
2022-09-14T21:49:29.840Z,97181.94
2022-09-14T21:51:57.187Z,97186.53
2022-09-14T21:54:24.655Z,97181.13
2022-09-14T21:56:52.905Z,97182.75
2022-09-14T21:59:21.945Z,97175.75
2022-09-14T22:01:49.619Z,97167.69
2022-09-14T22:04:22.766Z,97173.88
2022-09-14T22:06:51.582Z,97174.97
2022-09-14T22:09:21.333Z,97165.00
2022-09-14T22:11:49.687Z,97168.47
2022-09-14T22:14:19.908Z,97169.31
2022-09-14T22:16:48.801Z,97175.75
2022-09-14T22:19:18.059Z,97160.41
2022-09-14T22:21:45.805Z,97157.72
2022-09-14T22:24:20.985Z,97165.00
2022-09-14T22:26:50.226Z,97153.16
2022-09-14T22:29:18.853Z,97159.63
2022-09-14T22:31:46.707Z,97165.00
2022-09-14T22:34:15.012Z,97153.44
2022-09-14T22:36:42.749Z,97159.63
2022-09-14T22:39:11.068Z,97156.91
2022-09-14T22:41:39.328Z,97155.84
2022-09-14T22:44:07.476Z,97148.06
2022-09-14T22:46:35.594Z,97155.84
2022-09-14T22:49:03.280Z,97152.34
2022-09-14T22:51:30.845Z,97155.03
2022-09-14T22:53:58.272Z,97147.78
2022-09-14T22:56:31.711Z,97140.78
2022-09-14T22:59:00.958Z,97127.31
2022-09-14T23:01:31.765Z,97127.31
2022-09-14T23:04:05.180Z,97125.72
2022-09-14T23:06:35.281Z,97127.31
2022-09-14T23:09:04.026Z,97124.63
2022-09-14T23:11:31.666Z,97127.31
2022-09-14T23:13:59.399Z,97121.16
2022-09-14T23:16:28.686Z,97127.31
2022-09-14T23:19:02.378Z,97127.31
2022-09-14T23:21:31.218Z,97124.63
2022-09-14T23:24:04.115Z,97111.44
2022-09-14T23:26:32.094Z,97109.59
2022-09-14T23:29:07.321Z,97106.88
2022-09-14T23:31:35.459Z,97086.44
2022-09-14T23:34:04.393Z,97088.06
2022-09-14T23:36:33.103Z,97082.69
2022-09-14T23:39:00.994Z,97078.09
2022-09-14T23:41:28.970Z,97071.91
2022-09-14T23:43:56.296Z,97078.09
2022-09-14T23:46:24.402Z,97086.44
2022-09-14T23:48:52.127Z,97092.59
2022-09-14T23:51:19.674Z,97093.44
2022-09-14T23:53:47.277Z,97086.97
2022-09-14T23:56:14.843Z,97089.91
2022-09-14T23:58:42.538Z,97090.75
